メインページ
METAR-TAF:

METAR-TAF

空港 :

ラパス, メキシコ

緯度: 24-04N, 経度: 110-22W, 海抜: 21m

現時点の気象観測

当レポートは2時間28分前の05:52(UTC)に作成
南/南東の風 4kt
気温 15°C
湿度 67%
気圧 1016 hPa
視程: 16.1km
晴天

METAR: MMLP 260552Z 16004KT 10SM SKC 15/09 A3000 RMK SLP158 52009 973

時間: 01:20 (08:20 UTC)

予報

当レポートは3時間49分前の04:31(UTC)に作成
予報は26日の 06時(UTC)から 27日の 06時(UTC)まで有効
の風 5kt
視程: 10km
晴天
26日の 1600時(UTC)から
の風 10kt
視程: 10km
高度25000ftの雲は散在している
27日の 0200時(UTC)から
の風 5kt
視程: 10km
高度25000ftの千切れ雲あり

TAF: MMLP 260431Z 2606/2706 18005KT P6SM SKC FM261600 36010KT P6SM SCT250 FM270200 18005KT P6SM BKN250

4,000以上の空港の気象観測と天気予報(METAR報とTAF報)

利用可能な観測所は地図上に黄色い丸と赤い丸で示す。

丸の上にカーソルを重ねると観測所名を参照できる。

次にクリックすると気象観測と天気予報を参照できる。

マップの切り替え:黒色「×」印の緑ボタンをクリックして拡大、「-」印の緑ボタンをクリックして縮小、緑色の三角印をクリックして隣りの地図に切り替え


METAR-TAF: